Welcome to Northern Hawkes Bay. New Zealand.
PWS Header
      nz Flag



Hit Counter


W3C Valid W3C Valid logo


    Wairoa

Select any of the Stations below to visit their websites.










Historic Data from Weather Underground
Select the location of interest below. Wairoa is the default. Please have patience, this Data is slow to load in.
Northern Hawkes Bay Historical Data
Daily Summary for April 2, 2017 Units:  English    Metric   Both
« Previous Day
Next Day »
Daily Weekly Monthly Yearly Custom
  High: Low: Average:
Temperature: 84.4 °F 58.1 °F 69.8 °F
Dew Point: 64 °F 54.3 °F 60.1 °F
Humidity: 99% 47% 74%
Wind Speed: 11.4mph 0mph 3.9mph
Wind Gust: 19mph - -
Wind- - WNW
Pressure: 30.1 in 30 in -
Precipitation: 0 in    
Historical Graphs
 
 
Tabular Data for April 2, 2017
Time Temperature Dew Point Pressure Wind Wind Speed Wind Gust Humidity Rainfall Rate (Hourly) solar
00:05 59 °F 58.6 °F 30.1 in Calm   5.4 mph 99% 0 in 0 W/m2
00:11 58.8 °F 58.6 °F 30.1 in WNW 2.2 mph 4.5 mph 99% 0 in 0 W/m2
00:17 58.8 °F 58.6 °F 30 in NW 3.1 mph 6.9 mph 99% 0 in 0 W/m2
00:23 59 °F 58.6 °F 30 in NNW 3.1 mph 7.6 mph 99% 0 in 0 W/m2
00:29 59.4 °F 59.2 °F 30 in NNW 2.2 mph 6 mph 99% 0 in 0 W/m2
00:35 60.1 °F 59.7 °F 30 in NNW 2.2 mph 6 mph 99% 0 in 0 W/m2
00:41 59.4 °F 59.2 °F 30 in NNW 3.8 mph 7.6 mph 99% 0 in 0 W/m2
00:47 59.2 °F 58.8 °F 30 in NNW 4.5 mph 7.6 mph 99% 0 in 0 W/m2
00:53 59.4 °F 59.2 °F 30 in NNW 3.1 mph 7.6 mph 99% 0 in 0 W/m2
00:59 59.7 °F 59.5 °F 30 in NNW 0.7 mph 7.6 mph 99% 0 in 0 W/m2
01:05 59 °F 58.6 °F 30 in Calm   6 mph 99% 0 in 0 W/m2
01:11 59 °F 58.6 °F 30 in NNW 0.7 mph 4.5 mph 99% 0 in 0 W/m2
01:17 58.8 °F 58.6 °F 30 in NNW 2.2 mph 7.6 mph 99% 0 in 0 W/m2
01:23 58.8 °F 58.6 °F 30 in Calm   7.6 mph 99% 0 in 0 W/m2
01:29 58.6 °F 58.5 °F 30 in NNW 2.2 mph 6.9 mph 99% 0 in 0 W/m2
01:35 59 °F 58.6 °F 30 in North 2.2 mph 7.6 mph 99% 0 in 0 W/m2
01:41 59.2 °F 58.8 °F 30 in North 3.8 mph 9.8 mph 99% 0 in 0 W/m2
01:47 59.4 °F 59.2 °F 30 in North 7.6 mph 11.4 mph 99% 0 in 0 W/m2
01:53 59.5 °F 59.4 °F 30 in NNW 5.4 mph 12.1 mph 99% 0 in 0 W/m2
01:59 58.8 °F 58.6 °F 30 in NNW 4.5 mph 10.7 mph 99% 0 in 0 W/m2
02:05 59 °F 58.6 °F 30 in NNW 3.8 mph 8.3 mph 99% 0 in 0 W/m2
02:11 59.9 °F 59.5 °F 30 in NNW 3.8 mph 8.3 mph 99% 0 in 0 W/m2
02:17 59.2 °F 58.8 °F 30 in NW 4.5 mph 8.3 mph 99% 0 in 0 W/m2
02:23 59.7 °F 59.5 °F 30 in NW 6 mph 8.3 mph 99% 0 in 0 W/m2
02:29 59.4 °F 59.2 °F 30 in NW 5.4 mph 10.7 mph 99% 0 in 0 W/m2
02:35 59 °F 58.6 °F 30 in NW 6 mph 10.7 mph 99% 0 in 0 W/m2
02:41 59.2 °F 58.8 °F 30 in NNW 6 mph 9.8 mph 99% 0 in 0 W/m2
02:47 59.5 °F 59.4 °F 30 in NNW 8.3 mph 11.4 mph 99% 0 in 0 W/m2
02:53 59.5 °F 59.4 °F 30 in NNW 6.9 mph 11.4 mph 99% 0 in 0 W/m2
02:59 60.1 °F 59.2 °F 30 in NNW 8.3 mph 12.1 mph 97% 0 in 0 W/m2
02:05 60.1 °F 58.6 °F 30 in NNW 6 mph 12.1 mph 95% 0 in 0 W/m2
02:11 59.5 °F 58.1 °F 30 in NNW 6 mph 12.1 mph 95% 0 in 0 W/m2
02:17 59.2 °F 57.7 °F 30 in NNW 5.4 mph 12.1 mph 95% 0 in 0 W/m2
02:23 58.6 °F 57.6 °F 30 in NNW 6.9 mph 12.1 mph 96% 0 in 0 W/m2
02:29 58.5 °F 57.4 °F 30 in NNW 5.4 mph 12.1 mph 96% 0 in 0 W/m2
02:35 58.3 °F 57.2 °F 30 in NNW 6 mph 12.1 mph 96% 0 in 0 W/m2
02:41 58.5 °F 57.4 °F 30 in NNW 6 mph 12.1 mph 96% 0 in 0 W/m2
02:47 58.8 °F 57.7 °F 30 in NNW 6.9 mph 12.1 mph 96% 0 in 0 W/m2
02:53 59 °F 57.4 °F 30 in NNW 6 mph 12.1 mph 94% 0 in 0 W/m2
02:59 59.2 °F 57.6 °F 30 in NNW 5.4 mph 12.1 mph 94% 0 in 0 W/m2
03:05 59.2 °F 57.2 °F 30 in North 2.2 mph 12.1 mph 93% 0 in 0 W/m2
03:11 59.2 °F 57.2 °F 30 in Calm   8.3 mph 93% 0 in 0 W/m2
03:17 59.4 °F 57 °F 30 in NNW 3.1 mph 6.9 mph 92% 0 in 0 W/m2
03:23 60.3 °F 57.6 °F 30 in NNW 4.5 mph 9.2 mph 91% 0 in 0 W/m2
03:29 59.2 °F 56.3 °F 30 in NNW 5.4 mph 9.2 mph 90% 0 in 0 W/m2
03:35 59.2 °F 56.3 °F 30 in NNW 2.2 mph 9.2 mph 90% 0 in 0 W/m2
03:41 59.2 °F 56.3 °F 30 in NNW 3.1 mph 7.6 mph 90% 0 in 0 W/m2
03:47 59.2 °F 56.3 °F 30 in NNW 1.6 mph 7.6 mph 90% 0 in 0 W/m2
03:53 59.4 °F 56.1 °F 30 in North 3.1 mph 6 mph 89% 0 in 0 W/m2
03:59 59.7 °F 56.1 °F 30 in NNW 2.2 mph 6.9 mph 88% 0 in 0 W/m2
04:05 59.9 °F 55.9 °F 30 in NW 1.6 mph 7.6 mph 87% 0 in 0 W/m2
04:11 59.9 °F 55.8 °F 30 in NW 2.2 mph 7.6 mph 86% 0 in 0 W/m2
04:17 60.1 °F 55.9 °F 30 in NNW 5.4 mph 9.2 mph 86% 0 in 0 W/m2
04:23 59.7 °F 55.6 °F 30 in NNW 4.5 mph 9.2 mph 86% 0 in 0 W/m2
04:29 59.9 °F 55.8 °F 30 in North 3.8 mph 9.2 mph 86% 0 in 0 W/m2
04:35 59.7 °F 55.6 °F 30 in NNW 1.6 mph 9.2 mph 86% 0 in 0 W/m2
04:41 59.7 °F 55.6 °F 30 in Calm   6 mph 86% 0 in 0 W/m2
04:47 59.5 °F 55.4 °F 30 in NW 2.2 mph 6 mph 86% 0 in 0 W/m2
04:53 59.2 °F 55.2 °F 30 in NNW 4.5 mph 6.9 mph 87% 0 in 0 W/m2
04:59 59.2 °F 55.6 °F 30 in NNW 3.8 mph 7.6 mph 88% 0 in 0 W/m2
05:05 58.8 °F 55.6 °F 30 in Calm   6 mph 89% 0 in 0 W/m2
05:11 59.2 °F 55.9 °F 30 in NW 3.1 mph 5.4 mph 89% 0 in 0 W/m2
05:17 58.5 °F 55.6 °F 30 in NNW 1.6 mph 5.4 mph 90% 0 in 0 W/m2
05:23 58.5 °F 55.9 °F 30 in Calm   3.8 mph 91% 0 in 0 W/m2
05:29 58.3 °F 55.8 °F 30 in Calm     91% 0 in 0 W/m2
05:35 58.5 °F 55.9 °F 30 in North 0.7 mph 3.8 mph 91% 0 in 0 W/m2
05:41 58.3 °F 55.8 °F 30 in North 0.7 mph 7.6 mph 91% 0 in 0 W/m2
05:47 58.3 °F 55.8 °F 30 in NNW 3.8 mph 7.6 mph 91% 0 in 0 W/m2
05:53 58.6 °F 55.8 °F 30 in NNW 5.4 mph 9.2 mph 90% 0 in 0 W/m2
05:59 58.6 °F 55.8 °F 30 in North 6 mph 11.4 mph 90% 0 in 0 W/m2
06:05 59 °F 55.6 °F 30 in NNW 6.9 mph 12.1 mph 88% 0 in 0 W/m2
06:11 58.8 °F 55.2 °F 30 in NW 7.6 mph 12.1 mph 88% 0 in 0 W/m2
06:17 59.2 °F 55.2 °F 30 in NNW 6 mph 11.4 mph 87% 0 in 0 W/m2
06:23 59.5 °F 55 °F 30 in NNW 7.6 mph 10.7 mph 85% 0 in 0 W/m2
06:29 59 °F 54.9 °F 30 in NNW 5.4 mph 11.4 mph 86% 0 in 2 W/m2
06:35 58.8 °F 55.2 °F 30 in NNW 5.4 mph 12.1 mph 88% 0 in 5 W/m2
06:41 58.8 °F 55.2 °F 30 in NNW 5.4 mph 12.1 mph 88% 0 in 8 W/m2
06:47 58.1 °F 54.7 °F 30 in NNW 9.2 mph 11.4 mph 88% 0 in 12 W/m2
06:53 59 °F 55 °F 30 in North 6 mph 11.4 mph 87% 0 in 14 W/m2
06:59 58.1 °F 54.3 °F 30 in North 6.9 mph 11.4 mph 87% 0 in 20 W/m2
07:05 59.4 °F 55.2 °F 30 in NW 6.9 mph 12.1 mph 86% 0 in 28 W/m2
07:11 60.6 °F 56.1 °F 30 in NNW 4.5 mph 12.1 mph 85% 0 in 49 W/m2
07:17 59.9 °F 55.4 °F 30 in NNW 5.4 mph 11.4 mph 85% 0 in 96 W/m2
07:23 60.3 °F 55.8 °F 30 in NNW 3.8 mph 11.4 mph 85% 0 in 160 W/m2
07:29 61 °F 55.8 °F 30 in NNW 5.4 mph 9.2 mph 83% 0 in 154 W/m2
07:35 61.5 °F 56.3 °F 30 in NNW 0.7 mph 8.3 mph 83% 0 in 155 W/m2
07:41 62.6 °F 56.7 °F 30 in North 2.2 mph 7.6 mph 81% 0 in 137 W/m2
07:47 62.8 °F 56.1 °F 30 in NNW 1.6 mph 7.6 mph 79% 0 in 166 W/m2
07:53 63.5 °F 56.8 °F 30.1 in NNW 0.7 mph 7.6 mph 79% 0 in 165 W/m2
07:59 63.7 °F 56.5 °F 30.1 in NNW 0.7 mph 7.6 mph 77% 0 in 184 W/m2
08:05 64.8 °F 57 °F 30.1 in NNW 1.6 mph 5.4 mph 76% 0 in 228 W/m2
08:11 66.4 °F 58.3 °F 30.1 in NNW 3.1 mph 6 mph 75% 0 in 291 W/m2
08:17 67.1 °F 58.6 °F 30 in NNW 2.2 mph 6 mph 74% 0 in 311 W/m2
08:23 68.5 °F 58.5 °F 30 in NNE 2.2 mph 6 mph 70% 0 in 329 W/m2
08:29 69.3 °F 58.6 °F 30 in North 1.6 mph 6 mph 69% 0 in 339 W/m2
08:35 70.3 °F 58.8 °F 30.1 in North 0.7 mph 5.4 mph 67% 0 in 336 W/m2
08:41 71.2 °F 58.8 °F 30 in North 1.6 mph 5.4 mph 65% 0 in 356 W/m2
08:47 71.6 °F 58.5 °F 30 in North 3.8 mph 9.2 mph 63% 0 in 343 W/m2
08:53 71.2 °F 58.8 °F 30 in NNE 6 mph 9.8 mph 65% 0 in 225 W/m2
08:59 70.3 °F 58.5 °F 30 in North 3.8 mph 12.1 mph 66% 0 in 227 W/m2
09:05 70 °F 58.5 °F 30 in North 6 mph 12.1 mph 67% 0 in 222 W/m2
09:11 69.6 °F 59 °F 30 in NNE 5.4 mph 11.4 mph 69% 0 in 151 W/m2
09:17 68.9 °F 59.2 °F 30 in North 5.4 mph 12.1 mph 71% 0 in 141 W/m2
09:23 68.5 °F 59.5 °F 30 in North 4.5 mph 12.1 mph 73% 0 in 206 W/m2
09:29 68.9 °F 59.9 °F 30 in NNW 3.1 mph 9.8 mph 73% 0 in 178 W/m2
09:35 68.9 °F 60.3 °F 30 in NNW 5.4 mph 11.4 mph 74% 0 in 159 W/m2
09:41 68.9 °F 60.3 °F 30 in North 6 mph 9.8 mph 74% 0 in 146 W/m2
09:47 69.3 °F 59.9 °F 30 in North 4.5 mph 9.8 mph 72% 0 in 216 W/m2
09:53 70.2 °F 59.5 °F 30 in North 3.8 mph 9.8 mph 69% 0 in 227 W/m2
09:59 72.9 °F 60.4 °F 30 in North 2.2 mph 9.2 mph 65% 0 in 209 W/m2
10:05 73.4 °F 59.5 °F 30 in North 6 mph 8.3 mph 62% 0 in 204 W/m2
10:11 74.3 °F 60.4 °F 30 in NNW 3.1 mph 9.2 mph 62% 0 in 205 W/m2
10:17 75.9 °F 61.2 °F 30 in NNW 3.1 mph 9.2 mph 60% 0 in 201 W/m2
10:23 77 °F 59.5 °F 30 in North 6 mph 9.8 mph 55% 0 in 206 W/m2
10:29 77.4 °F 58.8 °F 30 in NNW 6 mph 10.7 mph 53% 0 in 205 W/m2
10:35 76.6 °F 59.7 °F 30 in NNW 3.8 mph 10.7 mph 56% 0 in 218 W/m2
10:41 78.3 °F 60.8 °F 30 in NNW 4.5 mph 9.2 mph 55% 0 in 290 W/m2
10:47 79.3 °F 59.7 °F 30 in North 5.4 mph 8.3 mph 51% 0 in 332 W/m2
10:53 78.8 °F 59.2 °F 30 in North 1.6 mph 8.3 mph 51% 0 in 376 W/m2
10:59 78.4 °F 60.4 °F 30 in NNW 2.2 mph 8.3 mph 54% 0 in 346 W/m2
11:05 79 °F 60.4 °F 30 in NNW 0.7 mph 8.3 mph 53% 0 in 464 W/m2
11:11 80.4 °F 61.2 °F 30 in NNW 4.5 mph 8.3 mph 52% 0 in 594 W/m2
11:17 80.6 °F 60.8 °F 30 in NNW 3.8 mph 8.3 mph 51% 0 in 461 W/m2
11:23 80.2 °F 61.2 °F 30 in NW 3.8 mph 12.1 mph 52% 0 in 641 W/m2
11:29 81 °F 61.7 °F 30 in NW 7.6 mph 12.1 mph 52% 0 in 533 W/m2
11:35 81.5 °F 61.7 °F 30 in NW 3.1 mph 10.7 mph 51% 0 in 645 W/m2
11:41 81.5 °F 61.7 °F 30 in NNW 5.4 mph 11.4 mph 51% 0 in 452 W/m2
11:47 82.2 °F 62.2 °F 30 in NW 4.5 mph 11.4 mph 51% 0 in 392 W/m2
11:53 81.9 °F 61.3 °F 30 in NW 9.2 mph 15.2 mph 50% 0 in 547 W/m2
11:59 81.3 °F 60.4 °F 30 in NNW 7.6 mph 15.9 mph 49% 0 in 680 W/m2
12:05 81.7 °F 60.1 °F 30 in NW 9.2 mph 15.9 mph 48% 0 in 652 W/m2
12:11 81.3 °F 60.4 °F 30 in NW 6 mph 15.9 mph 49% 0 in 278 W/m2
12:17 81.3 °F 61 °F 30 in NW 6.9 mph 14.5 mph 50% 0 in 393 W/m2
12:23 81.9 °F 61.3 °F 30 in NW 5.4 mph 12.1 mph 50% 0 in 578 W/m2
12:29 82.6 °F 61 °F 30 in NW 11.4 mph 15.9 mph 48% 0 in 627 W/m2
12:35 82.4 °F 60.3 °F 30 in NNW 6.9 mph 17.4 mph 47% 0 in 636 W/m2
12:41 82.9 °F 61.3 °F 30 in NW 6.9 mph 16.8 mph 48% 0 in 624 W/m2
12:47 82.9 °F 61.3 °F 30 in WNW 4.5 mph 15.2 mph 48% 0 in 628 W/m2
12:53 83.3 °F 61 °F 30 in WNW 4.5 mph 15.2 mph 47% 0 in 622 W/m2
12:59 83.3 °F 61.5 °F 30 in NW 6 mph 15.2 mph 48% 0 in 571 W/m2
13:05 84.4 °F 62.1 °F 30 in NNW 6 mph 13 mph 47% 0 in 556 W/m2
13:11 83.8 °F 61.5 °F 30 in NW 7.6 mph 14.5 mph 47% 0 in 498 W/m2
13:17 83.8 °F 62.1 °F 30 in NNW 7.6 mph 14.5 mph 48% 0 in 506 W/m2
13:23 83.8 °F 62.1 °F 30 in NW 8.3 mph 14.5 mph 48% 0 in 344 W/m2
13:29 84.2 °F 61.9 °F 30 in WNW 6 mph 14.5 mph 47% 0 in 325 W/m2
13:35 84 °F 61.7 °F 30 in NW 9.2 mph 13.6 mph 47% 0 in 336 W/m2
13:41 83.3 °F 61.5 °F 30 in NW 8.3 mph 15.2 mph 48% 0 in 530 W/m2
13:47 83.3 °F 61.5 °F 30 in NW 9.8 mph 17.4 mph 48% 0 in 526 W/m2
13:53 83.3 °F 61.5 °F 30 in NW 7.6 mph 18.3 mph 48% 0 in 529 W/m2
13:59 83.3 °F 62.2 °F 30 in NNW 6.9 mph 18.3 mph 49% 0 in 464 W/m2
14:05 83.8 °F 62.8 °F 30 in NNW 8.3 mph 13 mph 49% 0 in 497 W/m2
14:11 83.3 °F 62.8 °F 30 in NW 6.9 mph 16.8 mph 50% 0 in 372 W/m2
14:17 84 °F 63 °F 30 in NW 8.3 mph 16.8 mph 49% 0 in 144 W/m2
14:23 83.1 °F 62.1 °F 30 in WNW 7.6 mph 15.9 mph 49% 0 in 74 W/m2
14:29 82.8 °F 61.7 °F 30 in NW 9.8 mph 15.9 mph 49% 0 in 69 W/m2
14:35 82.6 °F 61.5 °F 30 in NW 9.8 mph 19 mph 49% 0 in 68 W/m2
14:41 82.9 °F 61.9 °F 30 in NNW 10.7 mph 15.2 mph 49% 0 in 71 W/m2
14:47 83.3 °F 62.2 °F 30 in NNW 6 mph 14.5 mph 49% 0 in 71 W/m2
14:53 83.1 °F 62.6 °F 30 in NNW 4.5 mph 15.2 mph 50% 0 in 76 W/m2
14:59 83.3 °F 62.2 °F 30 in NNW 6 mph 15.2 mph 49% 0 in 86 W/m2
15:05 83.8 °F 63.3 °F 30 in NW 8.3 mph 14.5 mph 50% 0 in 248 W/m2
15:11 84 °F 63 °F 30 in NNW 7.6 mph 13 mph 49% 0 in 382 W/m2
15:17 84.4 °F 62.1 °F 30 in NW 5.4 mph 13 mph 47% 0 in 380 W/m2
15:23 83.5 °F 62.4 °F 30 in NW 9.8 mph 16.8 mph 49% 0 in 355 W/m2
15:29 83.8 °F 62.8 °F 30 in NW 9.8 mph 16.8 mph 49% 0 in 362 W/m2
15:35 83.5 °F 62.4 °F 30 in NW 8.3 mph 15.2 mph 49% 0 in 350 W/m2
15:41 83.3 °F 62.2 °F 30 in NW 6.9 mph 16.8 mph 49% 0 in 296 W/m2
15:47 82.9 °F 61.9 °F 30 in NW 8.3 mph 16.8 mph 49% 0 in 318 W/m2
15:53 83.3 °F 62.2 °F 30 in NW 8.3 mph 15.9 mph 49% 0 in 178 W/m2
15:59 82.4 °F 61.3 °F 30 in NW 8.3 mph 15.9 mph 49% 0 in 166 W/m2
16:05 82.6 °F 62.1 °F 30 in NW 9.2 mph 14.5 mph 50% 0 in 267 W/m2
16:11 83.1 °F 62.1 °F 30 in NW 3.1 mph 13 mph 49% 0 in 275 W/m2
16:17 83.1 °F 62.1 °F 30 in NW 4.5 mph 11.4 mph 49% 0 in 196 W/m2
16:23 81.3 °F 61.5 °F 30 in NW 5.4 mph 10.7 mph 51% 0 in 94 W/m2
16:29 80.4 °F 62.2 °F 30 in NW 3.8 mph 10.7 mph 54% 0 in 63 W/m2
16:35 79.5 °F 62.1 °F 30 in NNW 6.9 mph 10.7 mph 55% 0 in 54 W/m2
16:41 79 °F 62.1 °F 30 in NNW 3.8 mph 10.7 mph 56% 0 in 54 W/m2
16:47 78.6 °F 62.2 °F 30 in NW 6.9 mph 10.7 mph 57% 0 in 57 W/m2
16:53 78.8 °F 61.9 °F 30 in NW 5.4 mph 10.7 mph 56% 0 in 53 W/m2
16:59 78.6 °F 63.1 °F 30 in North 3.1 mph 7.6 mph 59% 0 in 71 W/m2
17:05 79.5 °F 62.4 °F 30 in Calm   6 mph 56% 0 in 72 W/m2
17:11 79.7 °F 62.8 °F 30 in NNE 1.6 mph 5.4 mph 56% 0 in 37 W/m2
17:33 77.5 °F 64 °F 30 in North 3.1 mph 6 mph 63% 0 in 39 W/m2
17:39 77.2 °F 63.7 °F 30 in North 3.1 mph 6.9 mph 63% 0 in 33 W/m2
17:45 77.2 °F 63.7 °F 30 in Calm   6.9 mph 63% 0 in 21 W/m2
17:51 76.1 °F 63.5 °F 30 in North 2.2 mph 6 mph 65% 0 in 13 W/m2
17:57 75.6 °F 63 °F 30 in North 1.6 mph 6 mph 65% 0 in 6 W/m2
18:03 75 °F 63.3 °F 30 in North 3.8 mph 5.4 mph 67% 0 in 2 W/m2
18:09 74.7 °F 63 °F 30 in North 1.6 mph 5.4 mph 67% 0 in 0 W/m2
18:15 74.3 °F 63.1 °F 30 in Calm   4.5 mph 68% 0 in 0 W/m2
18:21 73.9 °F 63.1 °F 30 in Calm   3.8 mph 69% 0 in 0 W/m2
18:27 73.8 °F 63 °F 30 in North 3.1 mph 6 mph 69% 0 in 0 W/m2
18:33 73.8 °F 63 °F 30 in North 1.6 mph 6 mph 69% 0 in 0 W/m2
18:39 73.9 °F 63.1 °F 30 in North 3.1 mph 6 mph 69% 0 in 0 W/m2
18:45 73.8 °F 63 °F 30 in NNW 5.4 mph 7.6 mph 69% 0 in 0 W/m2
18:51 73.9 °F 63.1 °F 30 in NNW 3.1 mph 7.6 mph 69% 0 in 0 W/m2
18:57 73.9 °F 62.8 °F 30 in North 2.2 mph 6.9 mph 68% 0 in 0 W/m2
19:03 73.8 °F 63 °F 30 in North 2.2 mph 6.9 mph 69% 0 in 0 W/m2
19:09 73.4 °F 62.6 °F 30 in NNW 3.8 mph 7.6 mph 69% 0 in 0 W/m2
19:15 73.2 °F 63.3 °F 30 in NNW 2.2 mph 7.6 mph 71% 0 in 0 W/m2
19:21 72.9 °F 63 °F 30 in North 4.5 mph 6 mph 71% 0 in 0 W/m2
19:27 72.3 °F 62.8 °F 30 in NNW 3.8 mph 7.6 mph 72% 0 in 0 W/m2
19:33 72.1 °F 63 °F 30 in NNW 2.2 mph 6.9 mph 73% 0 in 0 W/m2
19:39 71.8 °F 62.8 °F 30 in NNW 2.2 mph 5.4 mph 73% 0 in 0 W/m2
19:45 71.8 °F 62.8 °F 30 in NNW 3.1 mph 5.4 mph 73% 0 in 0 W/m2
19:51 72 °F 63 °F 30 in North 3.1 mph 7.6 mph 73% 0 in 0 W/m2
19:57 72 °F 63 °F 30 in North 0.7 mph 7.6 mph 73% 0 in 0 W/m2
20:03 72.1 °F 63 °F 30 in North 0.7 mph 6 mph 73% 0 in 0 W/m2
20:09 72.1 °F 62.6 °F 30 in Calm   5.4 mph 72% 0 in 0 W/m2
20:15 72 °F 62.4 °F 30 in Calm   4.5 mph 72% 0 in 0 W/m2
20:21 72 °F 63 °F 30 in Calm   3.8 mph 73% 0 in 0 W/m2
20:27 71.8 °F 62.8 °F 30 in Calm   3.1 mph 73% 0 in 0 W/m2
20:33 71.6 °F 62.4 °F 30 in Calm     73% 0 in 0 W/m2
20:39 71.2 °F 62.6 °F 30 in Calm     74% 0 in 0 W/m2
20:45 71.1 °F 62.8 °F 30 in Calm   1.6 mph 75% 0 in 0 W/m2
20:51 70.9 °F 63 °F 30 in Calm   1.6 mph 76% 0 in 0 W/m2
20:57 70.7 °F 62.8 °F 30 in Calm     76% 0 in 0 W/m2
21:03 70.3 °F 62.8 °F 30 in Calm     77% 0 in 0 W/m2
21:09 70.3 °F 62.8 °F 30 in Calm   3.1 mph 77% 0 in 0 W/m2
21:15 70 °F 62.8 °F 30 in Calm   3.1 mph 78% 0 in 0 W/m2
21:21 70 °F 63.1 °F 30 in Calm   3.1 mph 79% 0 in 0 W/m2
21:27 69.8 °F 63 °F 30 in Calm     79% 0 in 0 W/m2
21:33 69.8 °F 63 °F 30 in Calm   3.8 mph 79% 0 in 0 W/m2
21:39 69.6 °F 63.1 °F 30 in NNW 1.6 mph 5.4 mph 80% 0 in 0 W/m2
21:45 69.4 °F 63.3 °F 30 in NNW 4.5 mph 5.4 mph 81% 0 in 0 W/m2
21:51 69.3 °F 63.1 °F 30 in NNW 1.6 mph 6.9 mph 81% 0 in 0 W/m2
21:57 69.1 °F 63 °F 30 in NNW 2.2 mph 6.9 mph 81% 0 in 0 W/m2
22:03 68.9 °F 63.1 °F 30 in NNW 0.7 mph 5.4 mph 82% 0 in 0 W/m2
22:09 68.7 °F 63 °F 30 in Calm   5.4 mph 82% 0 in 0 W/m2
22:15 68.7 °F 63 °F 30 in Calm   4.5 mph 82% 0 in 0 W/m2
22:21 68.4 °F 62.8 °F 30 in Calm   3.1 mph 82% 0 in 0 W/m2
22:27 68.4 °F 63 °F 30 in Calm   3.1 mph 83% 0 in 0 W/m2
22:33 68.2 °F 62.8 °F 30 in Calm   3.1 mph 83% 0 in 0 W/m2
22:39 68 °F 62.8 °F 30 in Calm     83% 0 in 0 W/m2
22:45 67.8 °F 62.8 °F 30 in Calm     84% 0 in 0 W/m2
22:51 67.6 °F 62.8 °F 30 in Calm     84% 0 in 0 W/m2
22:57 67.3 °F 62.6 °F 30 in Calm     85% 0 in 0 W/m2
23:03 67.1 °F 62.4 °F 30 in Calm     85% 0 in 0 W/m2
23:09 66.7 °F 62.4 °F 30 in North 1.6 mph 3.1 mph 86% 0 in 0 W/m2
23:15 67.5 °F 62.8 °F 30 in North 1.6 mph 3.8 mph 85% 0 in 0 W/m2
23:21 68 °F 63 °F 30 in Calm   3.8 mph 84% 0 in 0 W/m2
23:27 68.4 °F 62.8 °F 30 in Calm   3.8 mph 82% 0 in 0 W/m2
23:33 68.4 °F 62.8 °F 30 in NNW 3.1 mph 4.5 mph 82% 0 in 0 W/m2
23:39 68 °F 62.8 °F 30 in Calm   5.4 mph 83% 0 in 0 W/m2
23:45 67.6 °F 62.8 °F 30 in North 1.6 mph 4.5 mph 84% 0 in 0 W/m2
23:51 67.5 °F 62.4 °F 30 in Calm   3.8 mph 84% 0 in 0 W/m2
23:57 67.3 °F 62.6 °F 30 in North 3.1 mph 6 mph 85% 0 in 0 W/m2
Northern Hawkes Bay. New Zealand Historic Data
Compliments of Weather Underground - 2 mb